createdAt,value
2023-01-11T00:01:22.382Z,92591.34
2023-01-11T00:03:52.264Z,92595.22
2023-01-11T00:06:20.863Z,92586.00
2023-01-11T00:08:49.760Z,92585.19
2023-01-11T00:11:19.020Z,92581.56
2023-01-11T00:13:47.881Z,92587.88
2023-01-11T00:16:17.383Z,92587.66
2023-01-11T00:18:45.975Z,92601.22
2023-01-11T00:21:15.899Z,92604.72
2023-01-11T00:23:44.440Z,92606.16
2023-01-11T00:26:14.776Z,92586.69
2023-01-11T00:28:43.801Z,92606.00
2023-01-11T00:31:12.304Z,92605.06
2023-01-11T00:33:41.383Z,92599.00
2023-01-11T00:36:10.725Z,92596.38
2023-01-11T00:38:51.505Z,92590.34
2023-01-11T00:41:38.494Z,92581.28
2023-01-11T00:44:25.194Z,92574.31
2023-01-11T00:47:11.409Z,92576.19
2023-01-11T00:49:40.354Z,92572.72
2023-01-11T00:52:10.147Z,92573.44
2023-01-11T00:54:41.713Z,92566.50
2023-01-11T00:57:10.936Z,92561.00
2023-01-11T00:59:40.722Z,92551.28
2023-01-11T01:02:10.472Z,92556.97
2023-01-11T01:04:42.597Z,92557.91
2023-01-11T01:07:12.089Z,92556.28
2023-01-11T01:09:42.180Z,92558.09
2023-01-11T01:12:10.954Z,92555.69
2023-01-11T01:14:39.027Z,92557.91
2023-01-11T01:17:10.244Z,92549.16
2023-01-11T01:19:40.259Z,92549.22
2023-01-11T01:22:09.222Z,92550.00
2023-01-11T01:24:37.923Z,92543.88
2023-01-11T01:27:07.836Z,92554.06
2023-01-11T01:29:36.554Z,92557.34
2023-01-11T01:32:05.521Z,92551.47
2023-01-11T01:34:37.488Z,92551.91
2023-01-11T01:37:06.066Z,92547.25
2023-01-11T01:39:35.278Z,92534.78
2023-01-11T01:42:04.194Z,92538.31
2023-01-11T01:44:58.200Z,92545.44
2023-01-11T01:47:34.035Z,92541.56
2023-01-11T01:50:09.953Z,92543.31
2023-01-11T01:52:38.644Z,92538.03
2023-01-11T01:55:12.346Z,92540.38
2023-01-11T01:57:44.399Z,92540.03
2023-01-11T02:00:15.384Z,92537.19
2023-01-11T02:02:46.565Z,92538.91
2023-01-11T02:05:16.201Z,92524.63
2023-01-11T02:07:46.537Z,92517.78
2023-01-11T02:10:19.529Z,92523.47
2023-01-11T02:12:53.410Z,92517.09
2023-01-11T02:15:25.055Z,92517.44
2023-01-11T02:17:53.943Z,92519.09
2023-01-11T02:20:46.149Z,92518.00
2023-01-11T02:24:05.448Z,92519.28
2023-01-11T02:27:04.613Z,92519.69
2023-01-11T02:29:45.434Z,92520.66
2023-01-11T02:32:28.530Z,92509.22
2023-01-11T02:35:12.780Z,92512.31
2023-01-11T02:37:53.343Z,92503.38
2023-01-11T02:40:29.391Z,92503.38
2023-01-11T02:43:24.389Z,92504.41
2023-01-11T02:46:02.072Z,92504.41
2023-01-11T02:48:41.201Z,92503.75
2023-01-11T02:51:14.733Z,92492.78
2023-01-11T02:53:48.519Z,92495.44
2023-01-11T02:56:21.307Z,92502.28
2023-01-11T02:58:53.652Z,92484.25
2023-01-11T03:01:25.803Z,92469.09
2023-01-11T03:03:56.250Z,92478.16
2023-01-11T03:06:28.754Z,92486.66
2023-01-11T03:09:16.742Z,92477.97
2023-01-11T03:12:21.498Z,92471.69
2023-01-11T03:15:02.803Z,92473.97
2023-01-11T03:17:46.637Z,92469.06
2023-01-11T03:20:23.030Z,92465.41
2023-01-11T03:23:13.524Z,92467.44
2023-01-11T03:25:57.371Z,92462.75
2023-01-11T03:28:37.443Z,92458.34
2023-01-11T03:31:10.638Z,92465.78
2023-01-11T03:33:50.087Z,92455.56
2023-01-11T03:36:24.394Z,92457.13
2023-01-11T03:38:57.675Z,92455.16
2023-01-11T03:41:31.580Z,92449.13
2023-01-11T03:44:06.148Z,92452.63
2023-01-11T03:46:39.915Z,92447.34
2023-01-11T03:49:15.802Z,92445.03
2023-01-11T03:51:47.012Z,92435.31
2023-01-11T03:54:22.572Z,92447.72
2023-01-11T03:57:02.376Z,92442.78
2023-01-11T03:59:31.234Z,92440.59
2023-01-11T04:02:00.675Z,92452.13
2023-01-11T04:04:30.865Z,92449.69
2023-01-11T04:06:59.469Z,92449.22
2023-01-11T04:09:28.013Z,92436.78
2023-01-11T04:11:56.504Z,92440.00
2023-01-11T04:14:25.174Z,92435.91
2023-01-11T04:16:54.252Z,92436.66
2023-01-11T04:19:22.993Z,92437.66
2023-01-11T04:21:53.049Z,92436.13
2023-01-11T04:24:21.869Z,92437.84
2023-01-11T04:26:50.508Z,92433.63
2023-01-11T04:29:19.293Z,92429.06
2023-01-11T04:31:47.872Z,92432.28
2023-01-11T04:34:17.019Z,92429.06
2023-01-11T04:36:45.607Z,92439.41
2023-01-11T04:39:15.789Z,92441.50
2023-01-11T04:42:01.631Z,92433.91
2023-01-11T04:44:30.130Z,92430.41
2023-01-11T04:46:58.856Z,92430.13
2023-01-11T04:49:27.634Z,92434.00
2023-01-11T04:51:56.187Z,92417.84
2023-01-11T04:54:26.121Z,92415.97
2023-01-11T04:56:54.921Z,92423.13
2023-01-11T04:59:23.785Z,92407.59
2023-01-11T05:01:52.799Z,92412.78
2023-01-11T05:04:21.679Z,92401.19
2023-01-11T05:06:50.800Z,92401.72
2023-01-11T05:09:20.963Z,92412.59
2023-01-11T05:11:51.377Z,92400.75
2023-01-11T05:14:21.226Z,92401.03
2023-01-11T05:16:49.802Z,92390.69
2023-01-11T05:19:18.682Z,92388.00
2023-01-11T05:21:47.506Z,92387.88
2023-01-11T05:24:18.032Z,92390.78
2023-01-11T05:26:48.551Z,92388.66
2023-01-11T05:29:20.547Z,92395.22
2023-01-11T05:31:49.978Z,92404.19
2023-01-11T05:34:19.214Z,92397.97
2023-01-11T05:36:47.796Z,92404.88
2023-01-11T05:39:17.388Z,92395.72
2023-01-11T05:41:45.928Z,92389.94
2023-01-11T05:44:32.615Z,92383.81
2023-01-11T05:47:02.784Z,92385.84
2023-01-11T05:49:31.370Z,92369.31
2023-01-11T05:51:59.940Z,92375.16
2023-01-11T05:54:28.543Z,92374.47
2023-01-11T05:56:58.759Z,92371.38
2023-01-11T05:59:27.572Z,92366.84
2023-01-11T06:01:56.608Z,92380.19
2023-01-11T06:04:27.764Z,92375.25
2023-01-11T06:06:56.372Z,92371.81
2023-01-11T06:09:25.279Z,92376.81
2023-01-11T06:11:54.089Z,92372.22
2023-01-11T06:14:22.798Z,92367.28
2023-01-11T06:16:51.579Z,92377.66
2023-01-11T06:19:20.342Z,92366.19
2023-01-11T06:21:50.498Z,92373.13
2023-01-11T06:24:19.398Z,92365.41
2023-01-11T06:26:48.168Z,92360.47
2023-01-11T06:29:16.691Z,92356.28
2023-01-11T06:31:45.722Z,92361.56
2023-01-11T06:34:14.314Z,92359.34
2023-01-11T06:36:42.846Z,92357.06
2023-01-11T06:39:12.845Z,92356.72
2023-01-11T06:41:41.436Z,92362.44
2023-01-11T06:44:09.978Z,92372.44
2023-01-11T06:46:38.832Z,92367.03
2023-01-11T06:49:07.437Z,92360.19
2023-01-11T06:51:36.230Z,92362.88
2023-01-11T06:54:04.938Z,92359.41
2023-01-11T06:56:35.152Z,92359.78
2023-01-11T06:59:03.743Z,92366.31
2023-01-11T07:01:32.539Z,92361.72
2023-01-11T07:04:01.670Z,92366.31
2023-01-11T07:06:32.352Z,92361.00
2023-01-11T07:09:00.891Z,92359.84
2023-01-11T07:11:31.959Z,92358.75
2023-01-11T07:14:01.904Z,92357.94
2023-01-11T07:16:30.948Z,92366.81
2023-01-11T07:19:00.082Z,92349.50
2023-01-11T07:21:29.075Z,92359.09
2023-01-11T07:23:57.641Z,92357.97
2023-01-11T07:26:26.640Z,92354.53
2023-01-11T07:28:55.492Z,92352.56
2023-01-11T07:31:25.469Z,92357.59
2023-01-11T07:33:54.052Z,92353.41
2023-01-11T07:36:22.572Z,92359.56
2023-01-11T07:38:51.399Z,92358.03
2023-01-11T07:41:39.143Z,92365.31
2023-01-11T07:44:08.071Z,92358.41
2023-01-11T07:46:38.071Z,92364.22
2023-01-11T07:49:06.672Z,92361.16
2023-01-11T07:51:36.007Z,92364.19
2023-01-11T07:54:04.704Z,92376.09
2023-01-11T07:56:33.919Z,92361.97
2023-01-11T07:59:02.449Z,92358.50
2023-01-11T08:01:31.013Z,92360.00
2023-01-11T08:04:00.937Z,92358.13
2023-01-11T08:06:29.785Z,92356.56
2023-01-11T08:08:58.309Z,92363.88
2023-01-11T08:11:44.768Z,92368.88
2023-01-11T08:14:31.189Z,92376.59
2023-01-11T08:17:00.007Z,92365.44
2023-01-11T08:19:29.967Z,92371.59
2023-01-11T08:21:58.758Z,92376.22
2023-01-11T08:24:27.297Z,92377.34
2023-01-11T08:26:56.425Z,92362.00
2023-01-11T08:29:25.868Z,92358.22
2023-01-11T08:31:54.925Z,92359.75
2023-01-11T08:34:23.731Z,92356.66
2023-01-11T08:36:54.340Z,92362.81
2023-01-11T08:39:22.980Z,92362.06
2023-01-11T08:41:51.598Z,92350.56
2023-01-11T08:44:33.263Z,92365.97
2023-01-11T08:47:02.927Z,92369.06
2023-01-11T08:49:32.739Z,92365.19
2023-01-11T08:52:02.816Z,92364.44
2023-01-11T08:54:31.405Z,92362.13
2023-01-11T08:57:00.249Z,92362.91
2023-01-11T08:59:28.799Z,92354.03
2023-01-11T09:01:57.690Z,92358.28
2023-01-11T09:04:26.872Z,92357.94
2023-01-11T09:06:55.624Z,92358.38
2023-01-11T09:09:25.623Z,92368.75
2023-01-11T09:11:58.915Z,92364.16
2023-01-11T09:14:29.152Z,92364.53
2023-01-11T09:16:58.482Z,92361.81
2023-01-11T09:19:27.364Z,92365.66
2023-01-11T09:22:01.132Z,92373.78
2023-01-11T09:24:31.611Z,92379.16
2023-01-11T09:27:01.431Z,92386.06
2023-01-11T09:29:30.092Z,92391.06
2023-01-11T09:31:58.718Z,92388.41
2023-01-11T09:34:27.611Z,92394.94
2023-01-11T09:37:00.073Z,92407.59
2023-01-11T09:39:30.058Z,92411.78
2023-01-11T09:42:32.034Z,92410.25
2023-01-11T09:45:09.739Z,92398.38
2023-01-11T09:47:43.538Z,92392.63
2023-01-11T09:50:20.604Z,92393.78
2023-01-11T09:52:53.022Z,92393.41
2023-01-11T09:55:33.980Z,92402.25
2023-01-11T09:58:28.363Z,92400.72
2023-01-11T10:01:07.145Z,92405.75
2023-01-11T10:04:33.520Z,92406.88
2023-01-11T10:07:30.345Z,92402.25
2023-01-11T10:18:28.982Z,92385.31
2023-01-11T10:19:37.715Z,92393.03
2023-01-11T10:22:12.251Z,92373.81
2023-01-11T10:24:45.529Z,92377.66
2023-01-11T10:27:25.630Z,92380.72
2023-01-11T10:30:12.860Z,92378.84
2023-01-11T10:32:54.298Z,92375.41
2023-01-11T10:35:45.990Z,92376.19
2023-01-11T10:38:43.011Z,92361.56
2023-01-11T10:41:26.081Z,92360.03
2023-01-11T10:44:11.104Z,92355.38
2023-01-11T10:46:45.986Z,92365.41
2023-01-11T10:49:37.737Z,92368.09
2023-01-11T10:52:24.551Z,92363.50
2023-01-11T10:54:56.071Z,92362.34
2023-01-11T10:57:39.811Z,92357.72
2023-01-11T11:00:36.732Z,92359.25
2023-01-11T11:03:49.461Z,92362.31
2023-01-11T11:06:33.463Z,92372.69
2023-01-11T11:09:14.573Z,92367.31
2023-01-11T11:11:53.094Z,92343.84
2023-01-11T11:14:31.230Z,92355.78
2023-01-11T11:17:15.264Z,92346.19
2023-01-11T11:22:34.782Z,92355.38
2023-01-11T11:25:13.507Z,92353.88
2023-01-11T11:27:44.380Z,92366.91
2023-01-11T11:30:15.722Z,92369.97
2023-01-11T11:32:54.069Z,92353.06
2023-01-11T11:35:39.995Z,92367.69
2023-01-11T11:38:23.768Z,92356.91
2023-01-11T11:40:59.899Z,92344.59
2023-01-11T11:43:29.513Z,92345.75
2023-01-11T11:45:59.813Z,92330.00
2023-01-11T11:48:31.299Z,92349.59
2023-01-11T11:51:05.182Z,92330.75
2023-01-11T11:53:43.121Z,92339.19
2023-01-11T11:56:20.975Z,92344.56
2023-01-11T11:58:49.947Z,92341.50
2023-01-11T12:01:27.358Z,92341.50
2023-01-11T12:03:59.645Z,92339.19
2023-01-11T12:06:31.649Z,92341.50
2023-01-11T12:09:03.289Z,92341.06
2023-01-11T12:11:35.174Z,92336.06
2023-01-11T12:14:17.597Z,92328.38
2023-01-11T12:16:47.648Z,92329.94
2023-01-11T12:19:31.621Z,92338.38
2023-01-11T12:22:19.847Z,92326.41
2023-01-11T12:24:49.957Z,92330.66
2023-01-11T12:27:34.875Z,92324.50
2023-01-11T12:30:20.222Z,92325.31
2023-01-11T12:33:20.920Z,92316.81
2023-01-11T12:35:57.412Z,92312.97
2023-01-11T12:38:51.138Z,92315.25
2023-01-11T12:41:57.088Z,92313.38
2023-01-11T12:44:42.168Z,92309.16
2023-01-11T12:48:01.287Z,92324.84
2023-01-11T12:50:36.053Z,92335.22
2023-01-11T12:53:35.485Z,92334.44
2023-01-11T12:56:39.603Z,92319.84
2023-01-11T12:59:29.461Z,92332.53
2023-01-11T13:02:20.007Z,92332.84
2023-01-11T13:05:04.960Z,92336.34
2023-01-11T13:07:47.762Z,92345.88
2023-01-11T13:10:36.572Z,92339.81
2023-01-11T13:13:13.421Z,92332.84
2023-01-11T13:15:53.636Z,92336.34
2023-01-11T13:18:36.407Z,92338.19
2023-01-11T13:21:18.335Z,92316.66
2023-01-11T13:23:52.406Z,92320.97
2023-01-11T13:26:27.037Z,92332.06
2023-01-11T13:29:02.177Z,92332.00
2023-01-11T13:31:31.754Z,92322.09
2023-01-11T13:34:06.479Z,92328.28
2023-01-11T13:36:42.667Z,92332.06
2023-01-11T13:39:20.283Z,92336.97
2023-01-11T13:41:53.789Z,92341.66
2023-01-11T13:44:26.301Z,92351.22
2023-01-11T13:47:04.493Z,92344.69
2023-01-11T13:49:55.394Z,92353.91
2023-01-11T13:52:41.265Z,92360.84
2023-01-11T13:55:24.879Z,92373.47
2023-01-11T13:58:02.911Z,92359.28
2023-01-11T14:00:38.544Z,92361.31
2023-01-11T14:03:19.853Z,92359.28
2023-01-11T14:06:04.317Z,92378.84
2023-01-11T14:09:01.880Z,92372.31
2023-01-11T14:11:43.104Z,92368.84
2023-01-11T14:14:32.310Z,92363.09
2023-01-11T14:17:21.096Z,92368.97
2023-01-11T14:19:59.807Z,92374.28
2023-01-11T14:22:36.708Z,92379.66
2023-01-11T14:25:10.832Z,92378.91
2023-01-11T14:28:20.598Z,92391.16
2023-01-11T14:31:20.744Z,92382.78
2023-01-11T14:34:53.842Z,92377.75
2023-01-11T14:38:13.991Z,92380.03
2023-01-11T14:41:23.596Z,92381.91
2023-01-11T14:44:14.719Z,92395.72
2023-01-11T14:47:04.087Z,92407.97
2023-01-11T14:49:52.696Z,92430.16
2023-01-11T14:52:39.130Z,92433.25
2023-01-11T14:55:18.778Z,92432.41
2023-01-11T14:58:05.569Z,92461.41
2023-01-11T15:01:11.131Z,92469.03
2023-01-11T15:03:57.855Z,92472.63
2023-01-11T15:06:26.715Z,92475.72
2023-01-11T15:08:57.077Z,92477.22
2023-01-11T15:11:38.642Z,92482.09
2023-01-11T15:14:24.573Z,92485.19
2023-01-11T15:17:13.520Z,92474.03
2023-01-11T15:19:44.853Z,92479.78
2023-01-11T15:22:30.678Z,92487.06
2023-01-11T15:25:02.581Z,92493.28
2023-01-11T15:27:36.340Z,92502.41
2023-01-11T15:30:07.632Z,92504.69
2023-01-11T15:32:37.478Z,92509.63
2023-01-11T15:35:34.536Z,92502.34
2023-01-11T15:38:13.579Z,92513.75
2023-01-11T15:40:46.795Z,92500.25
2023-01-11T15:44:01.112Z,92520.06
2023-01-11T15:46:57.180Z,92529.75
2023-01-11T15:50:33.836Z,92538.16
2023-01-11T15:53:43.835Z,92538.63
2023-01-11T15:56:43.803Z,92543.16
2023-01-11T16:00:06.033Z,92555.78
2023-01-11T16:03:12.249Z,92563.38
2023-01-11T16:05:51.711Z,92552.69
2023-01-11T16:08:28.765Z,92560.28
2023-01-11T16:11:10.100Z,92572.50
2023-01-11T16:13:57.005Z,92578.69
2023-01-11T16:16:29.415Z,92587.00
2023-01-11T16:19:01.576Z,92595.28
2023-01-11T16:21:36.284Z,92578.03
2023-01-11T16:24:08.995Z,92588.28
2023-01-11T16:26:39.759Z,92599.38
2023-01-11T16:29:13.370Z,92597.00
2023-01-11T16:31:57.886Z,92605.78
2023-01-11T16:34:26.924Z,92605.47
2023-01-11T16:36:57.972Z,92612.75
2023-01-11T16:39:30.596Z,92608.75
2023-01-11T16:42:04.169Z,92611.44
2023-01-11T16:44:42.029Z,92625.88
2023-01-11T16:47:17.272Z,92614.53
2023-01-11T16:49:49.678Z,92627.63
2023-01-11T16:52:50.745Z,92632.13
2023-01-11T16:55:29.684Z,92630.28
2023-01-11T16:58:02.367Z,92637.38
2023-01-11T17:00:37.953Z,92633.91
2023-01-11T17:03:24.271Z,92651.06
2023-01-11T17:06:21.002Z,92656.41
2023-01-11T17:08:53.339Z,92663.22
2023-01-11T17:11:29.355Z,92670.84
2023-01-11T17:14:48.010Z,92665.28
2023-01-11T17:17:17.106Z,92667.31
2023-01-11T17:19:49.532Z,92672.91
2023-01-11T17:22:26.104Z,92682.44
2023-01-11T17:24:59.624Z,92693.63
2023-01-11T17:27:33.262Z,92682.50
2023-01-11T17:30:04.875Z,92677.44
2023-01-11T17:32:38.065Z,92701.06
2023-01-11T17:35:11.604Z,92709.50
2023-01-11T17:37:40.953Z,92692.44
2023-01-11T17:40:23.509Z,92697.31
2023-01-11T17:43:10.630Z,92692.16
2023-01-11T17:45:39.780Z,92688.78
2023-01-11T17:48:14.132Z,92695.59
2023-01-11T17:50:49.671Z,92687.59
2023-01-11T17:53:24.307Z,92692.81
2023-01-11T17:55:56.944Z,92696.28
2023-01-11T17:58:27.501Z,92707.59
2023-01-11T18:01:21.508Z,92703.44
2023-01-11T18:03:52.286Z,92710.34
2023-01-11T18:06:31.381Z,92710.00
2023-01-11T18:09:02.764Z,92715.34
2023-01-11T18:11:36.559Z,92714.81
2023-01-11T18:14:08.894Z,92721.56
2023-01-11T18:16:37.584Z,92720.44
2023-01-11T18:19:26.042Z,92720.66
2023-01-11T18:21:55.718Z,92715.44
2023-01-11T18:24:35.910Z,92711.91
2023-01-11T18:27:21.346Z,92695.38
2023-01-11T18:29:51.511Z,92715.75
2023-01-11T18:32:20.634Z,92720.28
2023-01-11T18:34:54.267Z,92716.84
2023-01-11T18:37:23.485Z,92716.13
2023-01-11T18:39:53.787Z,92723.69
2023-01-11T18:42:29.483Z,92716.13
2023-01-11T18:44:58.237Z,92718.38
2023-01-11T18:47:30.472Z,92727.28
2023-01-11T18:49:59.650Z,92740.38
2023-01-11T18:52:29.591Z,92729.59
2023-01-11T18:54:59.298Z,92736.41
2023-01-11T18:57:29.229Z,92740.56
2023-01-11T18:59:57.777Z,92749.28
2023-01-11T19:02:28.895Z,92745.25
2023-01-11T19:04:58.488Z,92749.50
2023-01-11T19:07:27.944Z,92757.53
2023-01-11T19:09:56.749Z,92751.47
2023-01-11T19:12:25.476Z,92752.09
2023-01-11T19:14:55.875Z,92764.13
2023-01-11T19:17:26.683Z,92760.19
2023-01-11T19:19:55.274Z,92769.75
2023-01-11T19:22:26.409Z,92765.75
2023-01-11T19:24:55.822Z,92766.47
2023-01-11T19:27:24.836Z,92777.94
2023-01-11T19:29:57.920Z,92760.31
2023-01-11T19:32:26.504Z,92766.38
2023-01-11T19:34:58.311Z,92774.72
2023-01-11T19:37:27.809Z,92783.56
2023-01-11T19:39:56.344Z,92773.75
2023-01-11T19:42:24.982Z,92780.50
2023-01-11T19:44:54.964Z,92787.06
2023-01-11T19:47:23.842Z,92780.03
2023-01-11T19:49:56.452Z,92782.31
2023-01-11T19:52:25.067Z,92782.41
2023-01-11T19:54:55.097Z,92776.47
2023-01-11T19:57:24.243Z,92775.56
2023-01-11T19:59:54.434Z,92767.31
2023-01-11T20:02:23.276Z,92772.75
2023-01-11T20:04:52.092Z,92778.28
2023-01-11T20:07:20.691Z,92764.13
2023-01-11T20:09:49.262Z,92769.78
2023-01-11T20:12:18.110Z,92777.38
2023-01-11T20:14:46.916Z,92785.06
2023-01-11T20:17:21.042Z,92798.38
2023-01-11T20:19:54.785Z,92790.00
2023-01-11T20:22:23.712Z,92796.50
2023-01-11T20:24:52.415Z,92807.66
2023-01-11T20:27:21.136Z,92811.00
2023-01-11T20:29:52.870Z,92808.31
2023-01-11T20:32:40.287Z,92814.03
2023-01-11T20:35:11.684Z,92811.16
2023-01-11T20:37:40.541Z,92806.56
2023-01-11T20:40:14.159Z,92801.28
2023-01-11T20:42:43.211Z,92802.03
2023-01-11T20:45:12.618Z,92804.63
2023-01-11T20:47:42.552Z,92796.34
2023-01-11T20:50:11.783Z,92789.13
2023-01-11T20:52:40.316Z,92787.72
2023-01-11T20:55:10.469Z,92800.84
2023-01-11T20:57:39.246Z,92797.41
2023-01-11T21:02:39.410Z,92804.09
2023-01-11T21:05:10.371Z,92807.16
2023-01-11T21:07:38.911Z,92802.09
2023-01-11T21:10:10.197Z,92800.13
2023-01-11T21:12:41.712Z,92809.97
2023-01-11T21:15:11.253Z,92802.28
2023-01-11T21:17:39.826Z,92798.56
2023-01-11T21:20:12.053Z,92804.31
2023-01-11T21:22:40.655Z,92803.84
2023-01-11T21:25:10.863Z,92809.84
2023-01-11T21:27:39.431Z,92803.06
2023-01-11T21:30:09.777Z,92806.03
2023-01-11T21:32:38.292Z,92819.13
2023-01-11T21:35:07.736Z,92811.13
2023-01-11T21:37:37.763Z,92825.44
2023-01-11T21:40:07.880Z,92822.00
2023-01-11T21:42:36.929Z,92822.47
2023-01-11T21:47:56.278Z,92815.19
2023-01-11T21:50:25.068Z,92813.19
2023-01-11T21:52:56.621Z,92814.38
2023-01-11T21:55:25.424Z,92814.50
2023-01-11T21:57:54.728Z,92820.88
2023-01-11T22:00:23.582Z,92804.47
2023-01-11T22:02:52.364Z,92805.09
2023-01-11T22:05:20.903Z,92802.94
2023-01-11T22:07:49.778Z,92802.25
2023-01-11T22:10:19.925Z,92800.16
2023-01-11T22:12:48.453Z,92792.25
2023-01-11T22:15:17.096Z,92800.78
2023-01-11T22:17:45.820Z,92793.28
2023-01-11T22:20:17.581Z,92797.31
2023-01-11T22:22:46.409Z,92800.63
2023-01-11T22:25:14.954Z,92804.56
2023-01-11T22:27:44.947Z,92806.56
2023-01-11T22:30:14.718Z,92811.72
2023-01-11T22:32:43.666Z,92807.66
2023-01-11T22:35:12.255Z,92804.56
2023-01-11T22:37:40.824Z,92812.59
2023-01-11T22:40:11.236Z,92812.88
2023-01-11T22:42:39.747Z,92822.06
2023-01-11T22:45:12.387Z,92823.13
2023-01-11T22:47:41.238Z,92825.53
2023-01-11T22:50:11.673Z,92846.66
2023-01-11T22:52:40.929Z,92831.38
2023-01-11T22:55:10.440Z,92822.06
2023-01-11T22:57:39.444Z,92826.03
2023-01-11T23:00:12.945Z,92828.13
2023-01-11T23:02:41.720Z,92821.50
2023-01-11T23:05:10.963Z,92825.53
2023-01-11T23:07:39.832Z,92818.56
2023-01-11T23:10:09.725Z,92827.28
2023-01-11T23:12:55.361Z,92819.41
2023-01-11T23:15:25.544Z,92817.56
2023-01-11T23:17:54.410Z,92817.41
2023-01-11T23:20:23.107Z,92821.03
2023-01-11T23:22:52.330Z,92831.28
2023-01-11T23:25:20.885Z,92828.78
2023-01-11T23:27:49.755Z,92820.09
2023-01-11T23:30:19.493Z,92824.06
2023-01-11T23:32:49.423Z,92815.72
2023-01-11T23:35:18.177Z,92822.00
2023-01-11T23:37:46.802Z,92820.19
2023-01-11T23:40:15.698Z,92815.63
2023-01-11T23:42:43.223Z,92813.69
2023-01-11T23:45:12.350Z,92829.91
2023-01-11T23:47:39.922Z,92812.88
2023-01-11T23:50:11.623Z,92819.84
2023-01-11T23:52:40.165Z,92812.31
2023-01-11T23:55:10.527Z,92781.81
2023-01-11T23:57:59.090Z,92813.03
